Fecha, hora, temperatura, viento dirección y velocidad, humedad y presión.

  • 12-12-2018 17:00:00 | 9.80°C | Oeste |4.00 km/h | 71.00% | 963.90 hPa
  • 12-12-2018 16:00:00 | 10.50°C | Norte |3.00 km/h | 66.00% | 964.10 hPa
  • 12-12-2018 15:00:00 | 10.50°C | Noroeste |9.00 km/h | 72.00% | 964.50 hPa
  • 12-12-2018 13:00:00 | 0.00°C | 0 |0.00 km/h | 0.00% | 0.00 hPa
  • 12-12-2018 12:00:00 | 10.80°C | Noroeste |14.00 km/h | 77.00% | 967.20 hPa
  • 12-12-2018 12:00:00 | 10.80°C | Noroeste |14.00 km/h | 77.00% | 967.20 hPa
  • 12-12-2018 11:00:00 | 10.50°C | Oeste |5.00 km/h | 81.00% | 967.70 hPa
  • 12-12-2018 10:00:00 | 10.20°C | Norte |11.00 km/h | 83.00% | 967.80 hPa
  • 12-12-2018 09:00:00 | 9.60°C | Norte |12.00 km/h | 86.00% | 967.70 hPa
  • 12-12-2018 08:00:00 | 8.40°C | Calma |0.00 km/h | 88.00% | 967.60 hPa
  • 12-12-2018 06:00:00 | 8.00°C | Sudeste |7.00 km/h | 87.00% | 967.30 hPa
  • 12-12-2018 05:00:00 | 9.10°C | Norte |7.00 km/h | 82.00% | 967.90 hPa
  • 12-12-2018 04:00:00 | 8.10°C | Oeste |4.00 km/h | 83.00% | 968.30 hPa
  • 12-12-2018 03:00:00 | 6.20°C | Sudoeste |3.00 km/h | 86.00% | 968.50 hPa
  • 12-12-2018 02:00:00 | 3.00°C | Calma |0.00 km/h | 91.00% | 968.30 hPa
  • 12-12-2018 01:00:00 | 1.90°C | Sudeste |9.00 km/h | 95.00% | 968.40 hPa
  • 12-12-2018 00:00:00 | 1.60°C | Sudeste |9.00 km/h | 94.00% | 968.20 hPa
  • 11-12-2018 23:00:00 | 2.40°C | Este |3.00 km/h | 93.00% | 968.20 hPa
  • 11-12-2018 22:00:00 | 2.80°C | Sudeste |5.00 km/h | 93.00% | 967.70 hPa
  • 11-12-2018 21:00:00 | 3.60°C | Sur |4.00 km/h | 92.00% | 967.70 hPa
  • 11-12-2018 20:00:00 | 4.50°C | Este |4.00 km/h | 90.00% | 967.40 hPa
  • 11-12-2018 19:00:00 | 5.00°C | Sur |7.00 km/h | 86.00% | 967.30 hPa
  • 11-12-2018 18:00:00 | 6.60°C | Sudoeste |3.00 km/h | 80.00% | 967.00 hPa
  • 11-12-2018 17:00:00 | 8.10°C | Oeste |2.00 km/h | 72.00% | 967.00 hPa
    • diseño web asturias Información sobre el estado de las mareas, altura de la marejada, temperatura del agua y otros datos de Gijón en Asturias.

      Surf Gijón